Latest Coastal Weather Observations for Port Kembla Harbour

IDN60701

Issued at 10:21 pm EST Thursday 30 July 2015 (issued every 10 minutes, with the page automatically refreshed every 10 minutes)

About coastal observations | Map of coastal stations | Coastal observations for NSW | Marine services | Other Formats
Station Details ID: 068253 Name: PORT KEMBLA NTC AWS Lat: -34.47 Lon: 150.91 Height: 0.0 m
Data from the previous 72 hours. | See also: Recent months for locations in New South Wales
Date/Time
EST
Temp

°C
Wind Pressure Rain
since 9am
mm
Weather Cloud Vis
km
Sea
Height
m
Swell
Dir
 
Speed
knots
Gust
knots
hPa Trend Height
m
Period
s
Dir
30/10:00pm 15.7 NNE 6 9 1017.3 - - - - - - - - -
30/09:30pm 15.9 N 8 21 1017.3 - - - - - - - - -
30/09:00pm 16.0 NNW 8 12 1017.5 - - - - - - - - -
30/08:30pm 16.4 NNW 7 13 1017.7 - - - - - - - - -
30/08:00pm 16.5 NNW 5 10 1017.7 - - - - - - - - -
30/07:30pm 17.2 NNW 10 17 1017.6 - - - - - - - - -
30/07:00pm 16.3 WNW 4 7 1018.0 - - - - - - - - -
30/06:30pm 15.7 W 2 4 1017.9 - - - - - - - - -
30/06:00pm 16.9 NW 3 5 1017.8 - - - - - - - - -
30/05:30pm 17.1 N 5 7 1017.6 - - - - - - - - -
30/05:00pm 17.3 NNE 6 7 1017.5 - - - - - - - - -
30/04:30pm 17.3 N 5 10 1017.6 - - - - - - - - -
30/04:00pm 17.8 N 7 11 1017.7 - - - - - - - - -
30/03:30pm 17.6 N 6 11 1018.5 - - - - - - - - -
30/03:00pm 18.2 NW 10 14 1018.5 - - - - - - - - -
30/02:30pm 18.1 NW 11 14 1019.0 - - - - - - - - -
30/02:00pm 18.2 NNW 9 16 1019.2 - - - - - - - - -
30/01:30pm 17.6 NNW 8 13 1019.8 - - - - - - - - -
30/01:00pm 17.1 N 8 13 1020.2 - - - - - - - - -
30/12:30pm 15.4 NNE 8 12 1020.9 - - - - - - - - -
30/12:00pm 15.3 NNE 9 13 1021.6 - - - - - - - - -
30/11:30am 15.6 N 7 10 1022.4 - - - - - - - - -
30/11:00am 15.0 NNE 10 13 1023.1 - - - - - - - - -
30/10:30am 15.4 N 6 11 1024.0 - - - - - - - - -
30/10:00am 14.8 N 4 8 1024.4 - - - - - - - - -
30/09:30am 14.9 NE 5 8 1024.7 - - - - - - - - -
30/09:00am 13.4 NNW 6 8 1025.2 - - - - - - - - -
30/08:30am 13.1 NW 7 9 1025.4 - - - - - - - - -
30/08:00am 11.6 WSW 3 4 1025.6 - - - - - - - - -
30/07:30am 10.8 WSW 2 4 1025.4 - - - - - - - - -
30/07:00am 11.0 WSW 3 6 1025.2 - - - - - - - - -
30/06:30am 12.4 WNW 4 7 1024.8 - - - - - - - - -
30/06:00am 12.5 NW 7 9 1025.0 - - - - - - - - -
30/05:30am 12.2 WNW 5 6 1025.1 - - - - - - - - -
30/05:00am 11.8 WSW 3 6 1025.5 - - - - - - - - -
30/04:30am 11.6 WSW 2 4 1025.7 - - - - - - - - -
30/04:00am 11.9 WNW 6 10 1025.9 - - - - - - - - -
30/03:30am 12.2 WNW 7 9 1026.0 - - - - - - - - -
30/03:00am 12.3 WSW 2 4 1026.2 - - - - - - - - -
30/02:30am 13.5 NNW 7 9 1026.3 - - - - - - - - -
30/02:00am 13.9 NNW 8 14 1026.5 - - - - - - - - -
30/01:30am 13.4 NNW 5 7 1027.2 - - - - - - - - -
30/01:00am 13.4 NNW 9 11 1027.9 - - - - - - - - -
30/12:30am 13.6 NW 7 10 1028.1 - - - - - - - - -
30/12:00am 13.6 NW 8 10 1028.3 - - - - - - - - -
 
Date/Time
EST
Temp

°C
Wind Pressure Rain
since 9am
mm
Weather Cloud Vis
km
Sea
Height
m
Swell
Dir
 
Speed
knots
Gust
knots
hPa Trend Height
m
Period
s
Dir
29/11:30pm 13.0 NNW 3 6 1028.5 - - - - - - - - -
29/11:00pm 13.3 N 5 7 1028.9 - - - - - - - - -
29/10:30pm 11.1 WSW 3 4 1029.3 - - - - - - - - -
29/10:00pm 11.1 SW 4 5 1029.6 - - - - - - - - -
29/09:30pm 10.9 WSW 5 6 1029.9 - - - - - - - - -
29/09:00pm 11.2 SW 5 6 1029.9 - - - - - - - - -
29/08:30pm 11.4 WSW 5 5 1029.7 - - - - - - - - -
29/08:00pm 11.7 WSW 3 5 1029.7 - - - - - - - - -
29/07:30pm 12.3 WSW 3 4 1030.0 - - - - - - - - -
29/07:00pm 12.6 WSW 4 5 1030.1 - - - - - - - - -
29/06:30pm 13.0 W 4 5 1029.9 - - - - - - - - -
29/06:00pm 14.2 NNE 4 5 1029.7 - - - - - - - - -
29/05:30pm 14.4 NE 3 5 1029.4 - - - - - - - - -
29/05:00pm 14.4 NE 3 4 1029.3 - - - - - - - - -
29/04:30pm 14.4 ENE 4 6 1029.2 - - - - - - - - -
29/04:00pm 14.5 NE 4 5 1029.3 - - - - - - - - -
29/03:30pm 14.3 ENE 5 7 1029.3 - - - - - - - - -
29/03:00pm 14.3 ENE 4 7 1029.8 - - - - - - - - -
29/02:30pm 14.3 E 5 9 1030.0 - - - - - - - - -
29/02:00pm 14.4 ESE 5 7 1030.3 - - - - - - - - -
29/01:30pm 14.2 ESE 5 8 1030.8 - - - - - - - - -
29/01:00pm 14.2 ESE 5 8 1031.1 - - - - - - - - -
29/12:30pm 14.3 SE 4 7 1031.8 - - - - - - - - -
29/12:00pm 14.3 SE 5 7 1032.5 - - - - - - - - -
29/11:30am 14.3 SE 5 7 1033.1 - - - - - - - - -
29/11:00am 14.1 S 3 6 1033.5 - - - - - - - - -
29/10:30am 14.3 SSW 3 7 1034.0 - - - - - - - - -
29/10:00am 13.8 WSW 5 8 1034.1 - - - - - - - - -
29/09:30am 14.2 SW 3 5 1034.1 - - - - - - - - -
29/09:00am 13.4 W 5 6 1034.3 - - - - - - - - -
29/08:30am 11.9 WSW 4 5 1034.3 - - - - - - - - -
29/08:00am 10.7 WSW 5 6 1034.1 - - - - - - - - -
29/07:30am 10.6 WSW 4 5 1033.7 - - - - - - - - -
29/07:00am 10.0 WSW 3 4 1033.5 - - - - - - - - -
29/06:30am 9.3 SW 4 5 1033.2 - - - - - - - - -
29/06:00am 9.4 WSW 3 4 1033.0 - - - - - - - - -
29/05:30am 9.8 WSW 3 4 1032.7 - - - - - - - - -
29/05:00am 9.9 WSW 3 5 1032.6 - - - - - - - - -
29/04:30am 10.2 WSW 3 4 1032.5 - - - - - - - - -
29/04:00am 10.8 W 5 6 1032.4 - - - - - - - - -
29/03:30am 11.5 WSW 4 7 1032.3 - - - - - - - - -
29/03:00am 11.1 WSW 5 7 1032.2 - - - - - - - - -
29/02:30am 10.9 WSW 3 4 1032.3 - - - - - - - - -
29/02:00am 10.8 WSW 4 5 1032.6 - - - - - - - - -
29/01:30am 10.0 SW 4 5 1032.7 - - - - - - - - -
29/01:00am 10.4 WSW 4 4 1032.5 - - - - - - - - -
29/12:30am 9.9 WSW 5 6 1032.6 - - - - - - - - -
29/12:00am 10.3 W 4 5 1032.5 - - - - - - - - -
 
Date/Time
EST
Temp

°C
Wind Pressure Rain
since 9am
mm
Weather Cloud Vis
km
Sea
Height
m
Swell
Dir
 
Speed
knots
Gust
knots
hPa Trend Height
m
Period
s
Dir
28/11:30pm 10.4 W 4 5 1032.6 - - - - - - - - -
28/11:00pm 10.2 W 4 5 1032.6 - - - - - - - - -
28/10:30pm 10.3 WSW 4 5 1032.8 - - - - - - - - -
28/10:00pm 10.6 WSW 4 5 1032.7 - - - - - - - - -
28/09:30pm 10.9 WSW 3 4 1032.7 - - - - - - - - -
28/09:00pm 10.9 WSW 4 5 1032.6 - - - - - - - - -
28/08:30pm 10.7 W 4 4 1032.5 - - - - - - - - -
28/08:00pm 11.1 WSW 4 6 1032.4 - - - - - - - - -
28/07:30pm 11.1 SW 4 5 1032.3 - - - - - - - - -
28/07:00pm 11.5 WSW 3 4 1032.1 - - - - - - - - -
28/06:30pm 12.7 SW 2 3 1031.5 - - - - - - - - -
28/06:00pm 14.0 S 2 4 1031.2 - - - - - - - - -
28/05:30pm 14.5 SE 7 9 1030.9 - - - - - - - - -
28/05:00pm 14.6 SSE 4 8 1030.7 - - - - - - - - -
28/04:30pm 14.6 SSE 5 9 1030.6 - - - - - - - - -
28/04:00pm 14.9 SE 5 9 1030.6 - - - - - - - - -
28/03:30pm 15.0 SSE 5 10 1030.4 - - - - - - - - -
28/03:00pm 15.2 SSE 7 13 1030.3 - - - - - - - - -
28/02:30pm 15.6 SSE 5 12 1030.2 - - - - - - - - -
28/02:00pm 15.4 SSE 6 11 1030.1 - - - - - - - - -
28/01:30pm 15.7 SSE 5 9 1030.3 - - - - - - - - -
28/01:00pm 15.5 SSE 5 10 1030.5 - - - - - - - - -
28/12:30pm 15.1 SSW 7 14 1030.7 - - - - - - - - -
28/12:00pm 14.9 WSW 10 14 1031.1 - - - - - - - - -
28/11:30am 14.7 WSW 11 15 1031.5 - - - - - - - - -
28/11:00am 14.2 WSW 12 18 1031.9 - - - - - - - - -
28/10:30am 14.0 WSW 11 17 1032.0 - - - - - - - - -
28/10:00am 13.6 WSW 10 16 1032.0 - - - - - - - - -
28/09:30am 12.9 W 8 13 1031.9 - - - - - - - - -
28/09:00am 11.9 W 9 12 1031.7 - - - - - - - - -
28/08:30am 11.1 W 11 13 1031.3 - - - - - - - - -

Other Formats:

Comma delimited format used in spreadsheet applications
http://www.bom.gov.au/fwo/IDN60701/IDN60701.95745.axf

JavaScript Object Notation format (JSON) in row-major order
http://www.bom.gov.au/fwo/IDN60701/IDN60701.95745.json